KAEJ

Central Colorado Regional Airport

Buena Vista, Colorado, USA
METAR KAEJ 211515Z AUTO 14005KT 10SM BKN055 BKN095 OVC120 00/M01 A3016 RMK AO2 T00041015
Observed Flight Rules
Apr-21 @ 15:15 UTC (19 minutes ago) Visual Flight Rules
Wind Visibility Clouds
140° at 5 knots 10 miles
  • Broken at 5,500' AGL
  • Broken at 9,500' AGL
  • Overcast at 12,000' AGL
Temperatures Readings
Current 0°C / 32°F
Dewpoint -2°C / 28°F
Humidity 87%
Altimeter 30.16" Hg
Pressure 1021 hPa
Elevation 2422
METAR KAEJ 211515Z AUTO 14005KT 10SM BKN055 BKN095 OVC120 00/M01 A3016 RMK AO2 T00041015
Observed Flight Rules
Apr-21 @ 15:15 UTC
(19 minutes ago)
VFR
Wind Visibility
140° at 5 knots 10 miles
Clouds
  • Broken at 5,500' AGL
  • Broken at 9,500' AGL
  • Overcast at 12,000' AGL
Temperature Dewpoint
0°C / 32°F -2°C / 28°F
Humidity Altimeter Pressure
87% 30.16" Hg 1021 hPa